Flight Track Log - Related Links

Times and Time Zones

All times are in EDT time to prevent confusion due to time zone crossing. See the SWA565 flight status page for this flight to view local times or setup timezone preferences in your user account.

Time Position Orientation Groundspeed Altitude Reporting Facility
EDT Latitude Longitude Course Direction KTS MPH feet Rate Location/Type
Wed 07:01:37 PM 28.4000 -81.3000 156° South 149 171 1,200  Level Orlando TRACON
Wed 07:02:20 PM 28.3667 -81.2833 156° South 191 220 2,400 2,587 Climbing Orlando TRACON
Wed 07:03:26 PM 28.3833 -81.2167 74° East 247 284 5,900 3,030 Climbing Orlando TRACON
Wed 07:05:40 PM 28.5547 -81.2500 350° North 299 344 12,500 3,093 Climbing Jacksonville Center
Wed 07:06:40 PM 28.6553 -81.2744 348° North 329 379 15,900 3,150 Climbing Jacksonville Center
Wed 07:07:40 PM 28.7578 -81.3011 347° North 358 412 18,800 2,200 Climbing Jacksonville Center
Wed 07:08:40 PM 28.8667 -81.3303 347° North 379 436 20,300 1,100 Climbing Jacksonville Center
Wed 07:09:40 PM 28.9775 -81.3592 347° North 395 455 21,000 1,300 Climbing Jacksonville Center
Wed 07:10:40 PM 29.0906 -81.3861 348° North 400 460 22,900 1,000 Climbing Jacksonville Center
Wed 07:11:40 PM 29.1911 -81.4011 353° North 405 466 23,000 800 Climbing Jacksonville Center
Wed 07:12:40 PM 29.3081 -81.4067 358° North 410 472 24,500 1,000 Climbing Jacksonville Center
Wed 07:13:40 PM 29.4250 -81.4072 360° North 410 472 25,000 900 Climbing Jacksonville Center
Wed 07:14:40 PM 29.5544 -81.4100 359° North 415 478 26,300 1,700 Climbing Jacksonville Center
Wed 07:15:40 PM 29.6733 -81.4131 359° North 420 483 28,400 1,950 Climbing Jacksonville Center
Wed 07:16:40 PM 29.7986 -81.4133 360° North 433 498 30,200 2,000 Climbing Jacksonville Center
Wed 07:17:40 PM 29.9239 -81.4139 360° North 440 506 32,400 2,200 Climbing Jacksonville Center
Wed 07:18:40 PM 30.0492 -81.4167 359° North 440 506 34,600 2,850 Climbing Jacksonville Center
Wed 07:19:40 PM 30.1619 -81.4175 360° North 426 490 38,100 2,200 Climbing Jacksonville Center
Wed 07:20:40 PM 30.2683 -81.4206 359° North 400 460 39,000 450 Climbing Jacksonville Center
Wed 07:21:40 PM 30.3728 -81.4192 North 383 441 39,000  Level Jacksonville Center
Wed 07:22:40 PM 30.4814 -81.4247 357° North 383 441 39,000  Level Jacksonville Center
Wed 07:23:40 PM 30.5858 -81.4256 360° North 383 441 39,000  Level Jacksonville Center
Wed 07:24:40 PM 30.6967 -81.4261 360° North 383 441 39,000  Level Jacksonville Center
Wed 07:25:40 PM 30.8028 -81.4172 North 383 441 39,000  Level Jacksonville Center
Wed 07:26:40 PM 30.9064 -81.3478 30° Northeast 383 441 39,000  Level Jacksonville Center
Wed 07:27:40 PM 31.0100 -81.2783 30° Northeast 407 468 39,000  Level Jacksonville Center
Wed 07:28:40 PM 31.1156 -81.2108 29° Northeast 412 474 39,000  Level Jacksonville Center
Wed 07:29:40 PM 31.2169 -81.1411 30° Northeast 422 486 39,000  Level Jacksonville Center
Wed 07:30:40 PM 31.3225 -81.0711 30° Northeast 429 494 39,000  Level Jacksonville Center
Wed 07:31:40 PM 31.4300 -80.9983 30° Northeast 434 499 39,000  Level Jacksonville Center
Wed 07:32:40 PM 31.5250 -80.9331 30° Northeast 439 505 39,000  Level Jacksonville Center
Wed 07:33:40 PM 31.6408 -80.8550 30° Northeast 439 505 39,000  Level Jacksonville Center
Wed 07:34:40 PM 31.7378 -80.7917 29° Northeast 439 505 39,000  Level Jacksonville Center
Wed 07:35:40 PM 31.8533 -80.7133 30° Northeast 439 505 39,000  Level Jacksonville Center
Wed 07:36:40 PM 31.9628 -80.6422 29° Northeast 439 505 39,000  Level Jacksonville Center
Wed 07:37:40 PM 32.0575 -80.5736 32° Northeast 439 505 39,000  Level Jacksonville Center
Wed 07:38:40 PM 32.1647 -80.4997 30° Northeast 439 505 39,000  Level Jacksonville Center
Wed 07:39:40 PM 32.2719 -80.4281 29° Northeast 439 505 39,000  Level Jacksonville Center
Wed 07:40:40 PM 32.3792 -80.3539 30° Northeast 439 505 39,000  Level Jacksonville Center
Wed 07:41:40 PM 32.4881 -80.2769 31° Northeast 444 511 39,000  Level Jacksonville Center
Wed 07:42:40 PM 32.5972 -80.2025 30° Northeast 444 511 39,000  Level Jacksonville Center
Wed 07:43:40 PM 32.7061 -80.1275 30° Northeast 444 511 39,000  Level Jacksonville Center
Wed 07:44:40 PM 32.8172 -80.0475 31° Northeast 444 511 39,000  Level Jacksonville Center
Wed 07:45:40 PM 32.9303 -79.9747 28° Northeast 449 517 39,000  Level Jacksonville Center
Wed 07:46:40 PM 33.0603 -79.9061 24° Northeast 456 525 39,000  Level Jacksonville Center
Wed 07:47:40 PM 33.1736 -79.8475 23° Northeast 456 525 39,000  Level Jacksonville Center
Wed 07:48:40 PM 33.2889 -79.7842 25° Northeast 456 525 39,000  Level Jacksonville Center
Wed 07:49:40 PM 33.4022 -79.7203 25° Northeast 451 519 39,000  Level Jacksonville Center
Wed 07:50:40 PM 33.5133 -79.6617 24° Northeast 451 519 39,000  Level Jacksonville Center
Wed 07:51:40 PM 33.6286 -79.5950 26° Northeast 444 511 39,000  Level Jacksonville Center
Wed 07:52:40 PM 33.7394 -79.5333 25° Northeast 438 504 39,000  Level Jacksonville Center
Wed 07:53:40 PM 33.8506 -79.4717 25° Northeast 438 504 39,000  Level Jacksonville Center
Wed 07:54:40 PM 33.9572 -79.4100 26° Northeast 438 504 39,000  Level Jacksonville Center
Wed 07:55:40 PM 34.0706 -79.3503 24° Northeast 433 498 39,000  Level Jacksonville Center
Wed 07:57:54 PM 34.3092 -79.2097 26° Northeast 448 516 39,000  Level Washington Center
Wed 07:58:55 PM 34.4214 -79.1469 25° Northeast 448 516 39,000  Level Washington Center
Wed 07:59:54 PM 34.5339 -79.0861 24° Northeast 448 516 39,000  Level Washington Center
Wed 08:00:55 PM 34.6442 -79.0228 25° Northeast 438 504 39,000  Level Washington Center
Wed 08:01:54 PM 34.7567 -78.9567 26° Northeast 438 504 39,000  Level Washington Center
Wed 08:02:54 PM 34.8669 -78.8953 25° Northeast 433 498 39,000  Level Washington Center
Wed 08:03:55 PM 34.9772 -78.8314 25° Northeast 433 498 39,000  Level Washington Center
Wed 08:04:55 PM 35.0894 -78.7675 25° Northeast 428 493 39,000  Level Washington Center
Wed 08:05:54 PM 35.1997 -78.7031 26° Northeast 428 493 39,000 -303 Level Washington Center
Wed 08:06:54 PM 35.3097 -78.6386 26° Northeast 428 493 38,400 -793 Descending Washington Center
Wed 08:07:55 PM 35.4264 -78.5717 25° Northeast 439 505 37,400 -1,000 Descending Washington Center
Wed 08:08:54 PM 35.5492 -78.4997 25° Northeast 439 505 36,400 -1,008 Descending Washington Center
Wed 08:09:54 PM 35.6675 -78.4300 26° Northeast 445 512 35,400 -950 Descending Washington Center
Wed 08:10:54 PM 35.7775 -78.3672 25° Northeast 445 512 34,500 -950 Descending Washington Center
Wed 08:11:54 PM 35.8897 -78.2994 26° Northeast 445 512 33,500 -950 Descending Washington Center
Wed 08:12:54 PM 36.0017 -78.2339 25° Northeast 445 512 32,600 -750 Descending Washington Center
Wed 08:13:54 PM 36.1158 -78.1658 26° Northeast 445 512 32,000 -300 Descending Washington Center
Wed 08:14:54 PM 36.2300 -78.0975 26° Northeast 445 512 32,000 -250 Level Washington Center
Wed 08:15:54 PM 36.3419 -78.0314 25° Northeast 445 512 31,500 -650 Descending Washington Center
Wed 08:16:54 PM 36.4433 -77.9675 27° Northeast 445 512 30,700 -900 Descending Washington Center
Wed 08:17:54 PM 36.5617 -77.8961 26° Northeast 445 512 29,700 -1,050 Descending Washington Center
Wed 08:18:54 PM 36.6714 -77.8294 26° Northeast 445 512 28,600 -850 Descending Washington Center
Wed 08:19:54 PM 36.7811 -77.7650 25° Northeast 439 505 28,000 -300 Descending Washington Center
Wed 08:20:54 PM 36.8886 -77.6981 26° Northeast 434 499 28,000 -450 Level Washington Center
Wed 08:21:54 PM 36.9961 -77.6333 26° Northeast 429 494 27,100 -500 Descending Washington Center
Wed 08:22:54 PM 37.1056 -77.5867 19° North 424 488 27,000 -545 Descending Washington Center
Wed 08:23:55 PM 37.2167 -77.5478 16° North 413 475 26,000 -1,000 Descending Washington Center
Wed 08:24:54 PM 37.3278 -77.5114 15° North 408 470 25,000 -1,008 Descending Washington Center
Wed 08:25:54 PM 37.4347 -77.4750 15° North 397 457 24,000 -992 Descending Washington Center
Wed 08:26:55 PM 37.5417 -77.4358 16° North 397 457 23,000 -942 Descending Washington Center
Wed 08:27:55 PM 37.6486 -77.3989 15° North 397 457 22,100 -958 Descending Washington Center
Wed 08:28:54 PM 37.7536 -77.3619 16° North 397 457 21,100 -555 Descending Washington Center
Wed 08:29:54 PM 37.8542 -77.3250 16° North 386 444 21,000 -50 Descending Washington Center
Wed 08:30:54 PM 37.9589 -77.2878 16° North 380 437 21,000  Level Washington Center
Wed 08:31:54 PM 38.0617 -77.2533 15° North 380 437 21,000 -550 Level Washington Center
Wed 08:32:54 PM 38.1644 -77.2158 16° North 380 437 19,900 -1,636 Descending Washington Center
Wed 08:33:55 PM 38.2650 -77.1811 15° North 375 432 17,700 -2,200 Descending Washington Center
Wed 08:34:54 PM 38.3508 -77.1483 17° North 370 426 15,500 -1,900 Descending Washington Center
Wed 08:35:55 PM 38.4436 -77.0628 36° Northeast 342 394 13,900 -1,750 Descending Washington Center
Wed 08:36:54 PM 38.5156 -76.9767 43° Northeast 342 394 12,000 -1,311 Descending Washington Center
Wed 08:37:54 PM 38.5875 -76.8931 42° Northeast 342 394 11,300 -942 Descending Washington Center
Wed 08:38:55 PM 38.6569 -76.8067 44° Northeast 347 399 10,100 -1,150 Descending Washington Center
Wed 08:39:54 PM 38.7183 -76.7197 48° Northeast 336 387 9,000 -1,311 Descending Washington Center
Wed 08:40:54 PM 38.7589 -76.6219 62° Northeast 317 365 7,500 -1,519 Descending Washington Center
Wed 08:41:13 PM 38.7667 -76.6000 66° East 309 356 7,000 -1,200 Descending Potomac TRACON
Wed 08:42:14 PM 38.8333 -76.5333 38° Northeast 298 343 5,900 -994 Descending Potomac TRACON
Wed 08:44:14 PM 38.9667 -76.4333 30° Northeast 266 306 4,000 -633 Descending Potomac TRACON
Wed 08:45:14 PM 39.0333 -76.4500 349° North 237 273 4,000 -150 Level Potomac TRACON
Wed 08:46:14 PM 39.0500 -76.5167 288° West 191 220 3,700 -633 Descending Potomac TRACON
Wed 08:48:14 PM 39.1000 -76.6000 308° West 160 184 2,100 -900 Descending Potomac TRACON
Wed 08:49:14 PM 39.1333 -76.6333 322° Northwest 159 183 1,000 -1,100 Descending Potomac TRACON
Wed 08:51:00 PM 39.1667 -76.6667 339° North  Level FlightAware Approximate
Wed 08:58:00 PM 39.1754 -76.6683 339° North  Level Estimated

Login

Don't have an account? Register now (free) for customized features, flight alerts, and more!